Time;durP1;ratioP1;P1;durP2;ratioP2;P2;SDS_P1;SDS_P2;PMS_P1;PMS_P2;Temp;Humidity;BMP_temperature;BMP_pressure;BME280_temperature;BME280_humidity;BME280_pressure;Samples;Min_cycle;Max_cycle;Signal;HPM_P1;HPM_P2
2023/10/10 00:01:00;;;;;;;21.60;19.35;;;18.00;99.90;;;;;;6242418;23;19923;-75
2023/10/10 00:03:27;;;;;;;22.63;20.25;;;17.90;99.90;;;;;;6242687;23;20054;-74
2023/10/10 00:05:55;;;;;;;22.40;19.63;;;17.90;99.90;;;;;;6242032;23;20583;-75
2023/10/10 00:08:27;;;;;;;24.65;22.02;;;17.90;99.90;;;;;;6241865;23;20030;-74
2023/10/10 00:10:55;;;;;;;28.05;21.35;;;17.90;99.90;;;;;;6242092;23;20016;-74
2023/10/10 00:13:23;;;;;;;24.70;20.90;;;17.90;99.90;;;;;;6215360;23;20000;-74
2023/10/10 00:15:55;;;;;;;26.17;22.70;;;17.90;99.90;;;;;;6241970;23;20004;-74
2023/10/10 00:18:22;;;;;;;22.92;20.52;;;17.90;99.90;;;;;;6242618;23;20447;-74
2023/10/10 00:21:06;;;;;;;25.20;21.35;;;17.80;99.90;;;;;;6242294;23;20007;-74
2023/10/10 00:23:39;;;;;;;23.20;20.35;;;17.80;99.90;;;;;;6215171;23;20000;-74
2023/10/10 00:26:05;;;;;;;26.65;24.02;;;17.80;99.90;;;;;;6241872;23;20003;-74
2023/10/10 00:28:34;;;;;;;25.83;19.58;;;17.80;99.90;;;;;;6242535;23;20014;-74
2023/10/10 00:31:03;;;;;;;24.88;21.63;;;17.80;99.90;;;;;;6214579;23;20007;-74
2023/10/10 00:33:31;;;;;;;23.08;20.63;;;17.70;99.90;;;;;;6242511;23;20006;-74
2023/10/10 00:35:58;;;;;;;28.70;22.70;;;17.70;99.90;;;;;;6241523;23;20325;-74
2023/10/10 00:38:29;;;;;;;23.75;21.45;;;17.70;99.90;;;;;;6214653;23;20031;-74
2023/10/10 00:40:57;;;;;;;23.13;20.00;;;17.60;99.90;;;;;;6214383;23;20016;-74
2023/10/10 00:43:24;;;;;;;26.20;23.08;;;17.60;99.90;;;;;;6242235;23;20000;-74
2023/10/10 00:45:57;;;;;;;25.13;22.23;;;17.50;99.90;;;;;;6241805;23;20038;-74
2023/10/10 00:48:24;;;;;;;26.65;23.63;;;17.50;99.90;;;;;;6242365;23;20000;-74
2023/10/10 00:51:05;;;;;;;22.73;20.33;;;17.40;99.90;;;;;;6241218;23;19997;-74
2023/10/10 00:53:33;;;;;;;26.00;22.88;;;17.40;99.90;;;;;;6242432;23;20015;-74
2023/10/10 00:56:00;;;;;;;25.23;22.83;;;17.40;99.90;;;;;;6241260;23;20035;-74
2023/10/10 00:58:38;;;;;;;27.25;23.95;;;17.40;99.90;;;;;;6241759;23;20000;-74
2023/10/10 01:01:09;;;;;;;26.48;22.20;;;17.40;99.90;;;;;;6241557;23;20329;-74
2023/10/10 01:03:41;;;;;;;26.70;21.58;;;17.30;99.90;;;;;;6242237;23;20421;-74
2023/10/10 01:06:20;;;;;;;25.23;22.52;;;17.30;99.90;;;;;;6241321;23;20042;-74
2023/10/10 01:09:15;;;;;;;25.33;22.65;;;17.30;99.90;;;;;;6242084;23;20004;-74
2023/10/10 01:11:42;;;;;;;27.08;20.88;;;17.20;99.90;;;;;;6241696;23;20075;-74
2023/10/10 01:14:08;;;;;;;26.05;23.08;;;17.20;99.90;;;;;;6241516;23;20007;-74
2023/10/10 01:16:34;;;;;;;28.20;24.92;;;17.10;99.90;;;;;;6242027;23;20000;-74
2023/10/10 01:18:59;;;;;;;24.65;22.30;;;17.10;99.90;;;;;;6241412;23;20004;-74
2023/10/10 01:21:33;;;;;;;27.83;24.48;;;17.10;99.90;;;;;;6241101;23;20000;-74
2023/10/10 01:24:06;;;;;;;30.88;26.83;;;17.10;99.90;;;;;;6241460;23;20015;-74
2023/10/10 01:26:36;;;;;;;21.92;19.60;;;17.10;99.90;;;;;;6241678;23;20402;-74
2023/10/10 01:29:13;;;;;;;28.52;24.95;;;17.10;99.90;;;;;;6241007;23;20074;-74
2023/10/10 01:31:42;;;;;;;29.25;25.20;;;17.10;99.90;;;;;;6241481;23;20004;-74
2023/10/10 01:34:23;;;;;;;29.83;24.42;;;17.00;99.90;;;;;;6240913;23;20062;-74
2023/10/10 01:36:50;;;;;;;27.17;24.33;;;17.00;99.90;;;;;;6241463;23;20004;-74
2023/10/10 01:39:28;;;;;;;26.30;23.50;;;16.90;99.90;;;;;;6241327;23;20356;-74
2023/10/10 01:41:54;;;;;;;26.38;23.15;;;16.90;99.90;;;;;;6240870;23;20020;-74
2023/10/10 01:44:22;;;;;;;28.55;24.95;;;16.90;99.90;;;;;;6241501;23;20018;-74
2023/10/10 01:46:50;;;;;;;28.38;25.33;;;16.80;99.90;;;;;;6241388;23;20000;-74
2023/10/10 01:49:29;;;;;;;27.08;24.13;;;16.80;99.90;;;;;;6240943;23;20054;-74
2023/10/10 01:51:58;;;;;;;29.15;26.00;;;16.70;99.90;;;;;;6241051;23;20024;-74
2023/10/10 01:54:39;;;;;;;25.88;23.15;;;16.70;99.90;;;;;;6241400;23;20035;-74
2023/10/10 01:57:07;;;;;;;26.80;23.80;;;16.70;99.90;;;;;;6241010;23;20003;-74
2023/10/10 01:59:38;;;;;;;25.40;22.73;;;16.60;99.90;;;;;;6241842;23;20053;-74
2023/10/10 02:02:09;;;;;;;27.27;24.38;;;16.60;99.90;;;;;;6240895;23;20077;-74
2023/10/10 02:04:35;;;;;;;35.08;28.83;;;16.60;99.90;;;;;;6241300;23;20054;-74
2023/10/10 02:07:06;;;;;;;27.45;24.23;;;16.50;99.90;;;;;;6240810;23;20027;-74
2023/10/10 02:09:35;;;;;;;27.73;24.27;;;16.50;99.90;;;;;;6241355;23;20000;-73
2023/10/10 02:12:16;;;;;;;30.95;25.58;;;16.50;99.90;;;;;;6240756;23;20004;-74
2023/10/10 02:14:43;;;;;;;24.60;21.98;;;16.50;99.90;;;;;;6240878;23;20426;-74
2023/10/10 02:17:21;;;;;;;24.58;21.90;;;16.40;99.90;;;;;;6240863;23;20466;-74
2023/10/10 02:19:58;;;;;;;24.30;21.67;;;16.40;99.90;;;;;;6240731;23;20418;-74
2023/10/10 02:22:33;;;;;;;24.90;21.63;;;16.40;99.90;;;;;;6241081;23;20000;-74
2023/10/10 02:27:54;;;;;;;27.92;25.00;;;16.30;99.90;;;;;;6240918;23;20065;-74
2023/10/10 02:30:34;;;;;;;35.22;26.83;;;16.30;99.90;;;;;;6240371;23;20461;-74
2023/10/10 02:35:54;;;;;;;28.52;25.35;;;16.30;99.90;;;;;;6250320;23;20012;-74
2023/10/10 02:38:32;;;;;;;36.03;28.58;;;16.20;99.90;;;;;;6240720;23;20000;-74
2023/10/10 02:44:09;;;;;;;34.55;28.42;;;16.20;99.90;;;;;;6240783;23;20027;-74
2023/10/10 02:46:40;;;;;;;35.60;28.05;;;16.20;99.90;;;;;;6241386;23;20075;-74
2023/10/10 02:49:30;;;;;;;31.27;28.20;;;16.20;99.90;;;;;;6212971;23;20008;-74
2023/10/10 02:51:56;;;;;;;29.17;25.20;;;16.20;99.90;;;;;;6240419;23;20111;-74
2023/10/10 02:56:57;;;;;;;40.13;30.63;;;16.20;99.90;;;;;;6251131;23;20046;-74
2023/10/10 02:59:43;;;;;;;36.25;30.73;;;16.20;99.90;;;;;;6213420;23;20034;-74
2023/10/10 03:02:16;;;;;;;39.58;30.55;;;16.20;99.90;;;;;;6239332;23;20008;-74
2023/10/10 03:04:52;;;;;;;50.10;34.65;;;16.30;99.90;;;;;;6241029;23;20058;-74
2023/10/10 03:07:27;;;;;;;33.25;27.95;;;16.30;99.90;;;;;;6240797;23;20079;-75
2023/10/10 03:12:38;;;;;;;70.30;40.78;;;16.40;99.90;;;;;;6251606;23;20035;-74
2023/10/10 03:15:13;;;;;;;62.65;39.42;;;16.40;99.90;;;;;;6240077;23;20023;-74
2023/10/10 03:17:48;;;;;;;92.35;45.10;;;16.50;99.90;;;;;;6240479;23;20065;-74
2023/10/10 03:25:47;;;;;;;64.85;36.65;;;16.60;99.90;;;;;;6241473;23;20414;-74
2023/10/10 03:28:21;;;;;;;117.38;37.97;;;16.60;99.90;;;;;;6240272;23;20350;-74
2023/10/10 05:25:22;;;;;;;67.00;41.25;;;16.80;99.90;;;;;;6241754;23;20018;-75
2023/10/10 05:27:51;;;;;;;67.22;41.92;;;16.80;99.90;;;;;;6241131;23;20422;-75
2023/10/10 05:30:25;;;;;;;65.13;41.13;;;16.80;99.90;;;;;;6241603;23;20331;-75
2023/10/10 05:33:01;;;;;;;69.43;39.97;;;16.80;99.90;;;;;;6241777;23;20496;-75
2023/10/10 05:35:32;;;;;;;73.82;40.00;;;16.80;99.90;;;;;;6242299;23;20000;-75
2023/10/10 05:38:02;;;;;;;54.60;36.50;;;16.80;99.90;;;;;;6241431;23;20221;-75
2023/10/10 05:40:28;;;;;;;65.75;39.33;;;16.80;99.90;;;;;;6241614;23;20008;-73
2023/10/10 05:42:57;;;;;;;69.13;39.92;;;16.80;99.90;;;;;;6240637;23;20000;-73
2023/10/10 05:45:22;;;;;;;61.65;41.17;;;16.80;99.90;;;;;;6241234;23;20004;-72
2023/10/10 05:47:48;;;;;;;62.03;43.67;;;16.80;99.90;;;;;;6238623;23;20008;-73
2023/10/10 05:50:14;;;;;;;49.65;39.17;;;16.80;99.90;;;;;;6213056;23;20399;-73
2023/10/10 05:52:45;;;;;;;62.30;44.20;;;16.80;99.90;;;;;;6239280;23;20034;-73
2023/10/10 05:55:11;;;;;;;66.18;44.53;;;16.70;99.90;;;;;;6237948;23;20012;-72
2023/10/10 05:57:37;;;;;;;63.20;44.97;;;16.70;99.90;;;;;;6239461;23;20326;-72
2023/10/10 06:00:10;;;;;;;58.47;43.60;;;16.60;99.90;;;;;;6240137;23;20000;-73
2023/10/10 06:02:36;;;;;;;95.85;52.38;;;16.60;99.90;;;;;;6241669;23;20047;-72
2023/10/10 06:05:04;;;;;;;60.53;45.38;;;16.60;99.90;;;;;;6213792;23;20012;-73
2023/10/10 06:07:30;;;;;;;66.22;48.28;;;16.50;99.90;;;;;;6241873;23;20539;-73
2023/10/10 06:09:57;;;;;;;54.25;43.25;;;16.50;99.90;;;;;;6240758;23;20437;-72
2023/10/10 06:12:24;;;;;;;59.55;43.28;;;16.50;99.90;;;;;;6241227;23;20004;-72
2023/10/10 06:14:49;;;;;;;63.20;46.25;;;16.40;99.90;;;;;;6241088;23;20085;-73
2023/10/10 06:17:16;;;;;;;82.10;48.10;;;16.40;99.90;;;;;;6240803;23;20430;-73
2023/10/10 06:19:45;;;;;;;73.05;47.78;;;16.40;99.90;;;;;;6214159;23;20053;-72
2023/10/10 06:22:14;;;;;;;60.90;44.90;;;16.30;99.90;;;;;;6241034;23;20365;-72
2023/10/10 06:24:40;;;;;;;58.70;43.30;;;16.40;99.90;;;;;;6237642;23;20028;-73
2023/10/10 06:27:09;;;;;;;63.70;45.38;;;16.30;99.90;;;;;;6240778;23;20007;-73
2023/10/10 06:29:35;;;;;;;57.60;44.55;;;16.30;99.90;;;;;;6240522;23;20376;-73
2023/10/10 06:32:02;;;;;;;69.28;50.30;;;16.30;99.90;;;;;;6237778;23;20005;-72
2023/10/10 06:34:34;;;;;;;73.50;53.13;;;16.30;99.90;;;;;;6240646;23;20004;-72
2023/10/10 06:37:12;;;;;;;71.75;52.30;;;16.30;99.90;;;;;;6213456;23;20393;-73
2023/10/10 06:39:56;;;;;;;62.72;48.38;;;16.30;99.90;;;;;;6240205;23;19996;-72
2023/10/10 06:42:27;;;;;;;;;;;16.30;99.90;;;;;;6238229;23;20023;-72
2023/10/10 06:44:54;;;;;;;81.05;53.85;;;16.20;99.90;;;;;;6213023;23;20309;-72
2023/10/10 06:47:21;;;;;;;75.95;57.90;;;16.20;99.90;;;;;;6240609;23;20255;-72
2023/10/10 06:49:55;;;;;;;70.35;56.10;;;16.20;99.90;;;;;;6240798;23;20001;-72
2023/10/10 06:52:23;;;;;;;74.25;53.50;;;16.20;99.90;;;;;;6240338;23;20078;-73
2023/10/10 06:54:55;;;;;;;76.80;56.20;;;16.30;99.90;;;;;;6239587;23;20015;-73
2023/10/10 06:57:22;;;;;;;75.68;56.00;;;16.30;99.90;;;;;;6240540;23;20004;-72
2023/10/10 06:59:48;;;;;;;79.57;58.03;;;16.30;99.90;;;;;;6240305;23;20057;-73
2023/10/10 07:02:20;;;;;;;71.90;54.53;;;16.30;99.90;;;;;;6239752;23;20020;-72
2023/10/10 07:04:55;;;;;;;75.45;54.28;;;16.40;99.90;;;;;;6238867;23;20442;-73
2023/10/10 07:07:21;;;;;;;68.93;55.28;;;16.40;99.90;;;;;;6240539;23;20000;-73
2023/10/10 07:09:48;;;;;;;66.25;52.33;;;16.40;99.90;;;;;;6239721;23;20099;-72
2023/10/10 07:12:16;;;;;;;65.13;52.58;;;16.50;99.90;;;;;;6213214;23;20004;-72
2023/10/10 07:14:47;;;;;;;63.63;49.55;;;16.50;99.90;;;;;;6238667;23;20036;-73
2023/10/10 07:17:14;;;;;;;65.30;52.70;;;16.50;99.90;;;;;;6240221;23;20019;-72
2023/10/10 07:22:25;;;;;;;56.65;47.38;;;16.60;99.90;;;;;;6239825;23;20007;-73
2023/10/10 07:25:06;;;;;;;52.50;44.13;;;16.50;99.90;;;;;;6239049;23;20687;-73
2023/10/10 07:27:36;;;;;;;53.00;45.72;;;16.60;99.90;;;;;;6240468;23;20079;-72
2023/10/10 07:30:16;;;;;;;48.97;42.00;;;16.60;99.90;;;;;;6239516;23;20004;-72
2023/10/10 07:32:48;;;;;;;44.97;38.45;;;16.60;99.90;;;;;;6212587;23;20008;-72
2023/10/10 07:35:21;;;;;;;50.95;41.95;;;16.70;99.90;;;;;;6239336;23;20460;-72
2023/10/10 07:37:47;;;;;;;48.10;37.50;;;16.70;99.90;;;;;;6239095;23;20000;-72
2023/10/10 07:42:40;;;;;;;37.05;32.63;;;16.60;99.90;;;;;;6250337;23;20333;-72
2023/10/10 07:45:15;;;;;;;44.85;39.95;;;16.60;99.90;;;;;;6240278;23;20075;-72
2023/10/10 07:50:35;;;;;;;45.30;38.53;;;16.70;99.90;;;;;;6250297;23;20008;-72
2023/10/10 07:53:12;;;;;;;38.03;33.03;;;16.70;99.90;;;;;;6239890;23;20080;-72
2023/10/10 07:56:00;;;;;;;42.47;37.90;;;16.70;99.90;;;;;;6240433;23;20087;-72
2023/10/10 07:58:43;;;;;;;38.83;32.88;;;16.70;99.90;;;;;;6238840;23;19996;-72
2023/10/10 08:01:10;;;;;;;35.75;31.35;;;16.70;99.90;;;;;;6240140;23;20434;-72
2023/10/10 08:03:36;;;;;;;39.80;34.42;;;16.70;99.90;;;;;;6240564;23;20071;-75
2023/10/10 08:06:02;;;;;;;34.08;30.42;;;16.70;99.90;;;;;;6240018;23;20026;-72
2023/10/10 08:08:28;;;;;;;35.17;31.30;;;16.80;99.90;;;;;;6241180;23;20019;-72
2023/10/10 08:10:54;;;;;;;33.42;29.85;;;16.80;99.90;;;;;;6241779;23;20307;-72
2023/10/10 08:13:22;;;;;;;34.45;30.00;;;16.80;99.90;;;;;;6242119;23;20023;-72
2023/10/10 08:16:01;;;;;;;32.08;28.75;;;16.90;99.90;;;;;;6242086;23;20426;-72
2023/10/10 08:18:49;;;;;;;32.85;28.98;;;16.90;99.90;;;;;;6241543;23;20004;-72
2023/10/10 08:21:14;;;;;;;29.95;26.80;;;17.00;99.90;;;;;;6241778;23;20071;-72
2023/10/10 08:23:48;;;;;;;33.72;27.83;;;17.00;99.90;;;;;;6242179;23;20097;-72
2023/10/10 08:26:29;;;;;;;;;;;17.00;99.90;;;;;;6242217;23;20047;-72
2023/10/10 08:28:55;;;;;;;28.75;23.63;;;17.00;99.90;;;;;;6241769;23;19903;-72
2023/10/10 08:31:22;;;;;;;30.40;27.10;;;17.10;99.90;;;;;;6240048;23;20003;-72
2023/10/10 08:33:49;;;;;;;30.20;26.98;;;17.10;99.90;;;;;;6214515;23;20011;-72
2023/10/10 08:36:23;;;;;;;30.50;26.25;;;17.20;99.90;;;;;;6213782;23;20008;-72
2023/10/10 08:38:51;;;;;;;33.28;26.35;;;17.20;99.90;;;;;;6241019;23;20056;-72
2023/10/10 08:41:22;;;;;;;29.23;26.02;;;17.20;99.90;;;;;;6238559;23;20015;-72
2023/10/10 08:44:01;;;;;;;30.73;25.95;;;17.30;99.90;;;;;;6213226;23;20007;-72
2023/10/10 08:46:30;;;;;;;26.70;23.90;;;17.30;99.90;;;;;;6240284;23;19996;-72
2023/10/10 08:49:03;;;;;;;27.75;24.35;;;17.30;99.90;;;;;;6239559;23;20004;-72
2023/10/10 08:51:34;;;;;;;35.58;26.25;;;17.40;99.90;;;;;;6238696;23;20141;-72
2023/10/10 08:54:10;;;;;;;26.17;23.38;;;17.40;99.90;;;;;;6239680;23;20019;-72
2023/10/10 08:56:59;;;;;;;22.80;20.50;;;17.50;99.90;;;;;;6240373;23;20062;-72
2023/10/10 08:59:31;;;;;;;25.70;22.60;;;17.50;99.90;;;;;;6240207;23;20000;-73
2023/10/10 09:02:06;;;;;;;24.15;21.67;;;17.60;99.90;;;;;;6239852;23;20000;-73
2023/10/10 09:04:32;;;;;;;32.85;24.33;;;17.60;99.90;;;;;;6238617;23;20075;-72
2023/10/10 09:06:59;;;;;;;26.30;22.05;;;17.70;99.90;;;;;;6240390;23;20040;-72
2023/10/10 09:09:43;;;;;;;24.00;21.40;;;17.70;99.90;;;;;;6239750;23;20004;-73
2023/10/10 09:12:14;;;;;;;21.98;19.70;;;17.70;99.90;;;;;;6239957;23;20004;-72
2023/10/10 09:14:41;;;;;;;25.42;20.27;;;17.80;99.90;;;;;;6238639;23;20011;-72
2023/10/10 09:17:28;;;;;;;24.08;20.20;;;17.80;99.90;;;;;;6238018;23;19996;-72
2023/10/10 09:19:56;;;;;;;25.27;20.33;;;17.90;99.90;;;;;;6239360;23;20007;-72
2023/10/10 09:22:33;;;;;;;23.10;19.48;;;17.90;99.90;;;;;;6239949;23;20475;-72
2023/10/10 09:25:17;;;;;;;21.83;18.77;;;17.90;99.90;;;;;;6238149;23;20515;-72
2023/10/10 09:27:59;;;;;;;22.15;18.88;;;17.90;99.90;;;;;;6239690;23;20004;-73
2023/10/10 09:30:40;;;;;;;21.15;17.83;;;18.00;99.90;;;;;;6238756;23;20000;-73
2023/10/10 09:35:48;;;;;;;23.10;20.75;;;18.10;99.90;;;;;;6239040;23;20008;-72
2023/10/10 09:38:19;;;;;;;20.17;18.15;;;18.10;99.90;;;;;;6239455;23;20429;-72
2023/10/10 09:40:48;;;;;;;21.92;18.80;;;18.10;99.90;;;;;;6212230;23;20058;-73
2023/10/10 09:43:35;;;;;;;25.05;19.67;;;18.10;99.90;;;;;;6239202;23;20054;-73
2023/10/10 09:46:19;;;;;;;20.98;18.73;;;18.20;99.90;;;;;;6238158;23;20429;-72
2023/10/10 09:49:17;;;;;;;21.83;19.65;;;18.20;99.90;;;;;;6239188;23;20000;-72
2023/10/10 09:54:25;;;;;;;24.02;21.58;;;18.30;99.90;;;;;;6240907;23;20034;-72
2023/10/10 09:56:53;;;;;;;23.42;20.65;;;18.40;99.90;;;;;;6239848;23;20079;-72
2023/10/10 09:59:20;;;;;;;22.77;20.50;;;18.50;99.90;;;;;;6241215;23;20032;-72
2023/10/10 10:01:47;;;;;;;22.90;20.45;;;18.50;99.90;;;;;;6240570;23;20042;-72
2023/10/10 10:04:25;;;;;;;24.05;21.27;;;18.60;99.90;;;;;;6240455;23;20123;-73
2023/10/10 10:07:12;;;;;;;25.73;22.88;;;18.60;99.90;;;;;;6240916;23;20004;-72
2023/10/10 10:09:45;;;;;;;24.10;21.55;;;18.70;99.90;;;;;;6240310;23;20000;-72
2023/10/10 10:12:41;;;;;;;25.15;20.85;;;18.70;99.90;;;;;;6240938;23;20075;-72
2023/10/10 10:15:07;;;;;;;25.17;22.08;;;18.80;99.90;;;;;;6240516;23;20008;-72
2023/10/10 10:18:13;;;;;;;25.85;23.15;;;18.80;99.90;;;;;;6241279;23;20000;-72
2023/10/10 10:20:47;;;;;;;26.60;21.30;;;18.80;99.90;;;;;;6240707;23;20065;-72
2023/10/10 10:23:26;;;;;;;23.45;20.77;;;18.90;99.90;;;;;;6240927;23;20016;-73
2023/10/10 10:26:09;;;;;;;24.90;20.88;;;18.90;99.90;;;;;;6240589;23;20087;-72
2023/10/10 10:28:36;;;;;;;25.88;23.17;;;18.90;99.90;;;;;;6214251;23;20008;-72
2023/10/10 10:31:04;;;;;;;22.80;19.67;;;19.00;99.90;;;;;;6238257;23;20004;-72
2023/10/10 10:33:33;;;;;;;27.05;21.70;;;19.00;99.90;;;;;;6241500;23;20001;-73
2023/10/10 10:36:14;;;;;;;22.13;19.77;;;19.10;99.90;;;;;;6240215;23;20066;-72
2023/10/10 10:39:17;;;;;;;22.05;19.88;;;19.10;99.90;;;;;;6240171;23;20027;-74
2023/10/10 10:41:42;;;;;;;26.45;20.60;;;19.10;99.90;;;;;;6238326;23;20114;-72
2023/10/10 10:44:09;;;;;;;23.17;19.30;;;19.20;99.90;;;;;;6240585;23;20004;-72
2023/10/10 10:46:40;;;;;;;24.13;20.70;;;19.20;99.90;;;;;;6239607;23;20065;-72
2023/10/10 10:49:07;;;;;;;22.35;20.00;;;19.20;99.90;;;;;;6240056;23;20088;-72
2023/10/10 10:51:41;;;;;;;23.30;20.75;;;19.30;99.90;;;;;;6239499;23;20050;-72
2023/10/10 10:54:08;;;;;;;22.23;19.50;;;19.30;99.90;;;;;;6240154;23;20092;-72
2023/10/10 10:59:13;;;;;;;24.90;19.42;;;19.40;99.90;;;;;;6240791;23;20035;-72
2023/10/10 11:01:51;;;;;;;24.23;19.42;;;19.40;99.90;;;;;;6239404;23;20102;-73
2023/10/10 11:04:46;;;;;;;22.90;19.75;;;19.40;99.90;;;;;;6239373;23;20064;-73
2023/10/10 11:07:16;;;;;;;22.35;17.77;;;19.50;99.90;;;;;;6238842;23;20000;-73
2023/10/10 11:09:52;;;;;;;23.38;19.13;;;19.50;99.90;;;;;;6240412;23;20391;-73
2023/10/10 11:12:21;;;;;;;20.50;18.30;;;19.50;99.90;;;;;;6239902;23;20055;-73
2023/10/10 11:14:49;;;;;;;20.23;16.77;;;19.60;99.90;;;;;;6238544;23;20012;-73
2023/10/10 11:17:18;;;;;;;22.80;19.63;;;19.60;99.90;;;;;;6239944;23;20115;-73
2023/10/10 11:19:53;;;;;;;21.95;17.40;;;19.60;99.90;;;;;;6239994;23;20000;-73
2023/10/10 11:22:38;;;;;;;21.33;18.50;;;19.60;99.90;;;;;;6240258;23;20423;-73
2023/10/10 11:25:05;;;;;;;20.67;18.13;;;19.70;99.90;;;;;;6238344;23;20007;-73
2023/10/10 11:27:43;;;;;;;19.52;17.45;;;19.70;99.90;;;;;;6240656;23;20008;-73
2023/10/10 11:30:11;;;;;;;17.15;15.20;;;19.80;99.90;;;;;;6212825;23;20004;-73
2023/10/10 11:32:47;;;;;;;19.90;17.70;;;19.80;99.90;;;;;;6213654;23;20004;-73
2023/10/10 11:35:22;;;;;;;19.13;16.25;;;19.80;99.90;;;;;;6238624;23;20050;-73
2023/10/10 11:37:59;;;;;;;22.48;19.30;;;19.80;99.90;;;;;;6240795;23;20000;-73
2023/10/10 11:43:05;;;;;;;18.65;16.80;;;19.80;99.90;;;;;;6251292;23;20004;-73
2023/10/10 11:45:39;;;;;;;18.02;15.82;;;19.90;99.90;;;;;;6240960;23;20015;-73
2023/10/10 11:48:10;;;;;;;15.00;13.40;;;19.90;99.90;;;;;;6240765;23;20434;-73
2023/10/10 11:50:51;;;;;;;20.05;16.20;;;19.90;99.90;;;;;;6241411;23;19999;-73
2023/10/10 11:53:24;;;;;;;22.25;16.95;;;20.00;99.90;;;;;;6241910;23;19996;-73
2023/10/10 11:55:53;;;;;;;20.98;16.27;;;20.10;99.90;;;;;;6241596;23;20008;-73
2023/10/10 11:58:19;;;;;;;19.95;16.25;;;20.10;99.90;;;;;;6211918;23;20112;-73
2023/10/10 12:01:05;;;;;;;15.95;13.73;;;20.20;99.90;;;;;;6241954;23;20072;-73
2023/10/10 12:06:13;;;;;;;17.75;14.65;;;20.40;99.90;;;;;;6252063;23;20338;-74
2023/10/10 12:08:47;;;;;;;20.33;13.85;;;20.60;99.90;;;;;;6241001;23;20008;-73
2023/10/10 12:11:15;;;;;;;17.60;14.02;;;20.70;99.90;;;;;;6241683;23;20038;-73
2023/10/10 12:13:44;;;;;;;15.82;13.55;;;20.80;99.90;;;;;;6241904;23;20027;-73
2023/10/10 12:16:12;;;;;;;17.98;14.60;;;20.90;99.90;;;;;;6241586;23;20012;-73
2023/10/10 12:18:45;;;;;;;15.55;13.93;;;21.00;99.90;;;;;;6214909;23;20041;-73
2023/10/10 12:21:19;;;;;;;16.00;13.82;;;21.00;99.90;;;;;;6239751;23;20004;-73
2023/10/10 12:23:47;;;;;;;15.65;13.82;;;21.00;99.90;;;;;;6215098;23;20054;-73
2023/10/10 12:26:12;;;;;;;16.27;13.80;;;21.00;99.90;;;;;;6241858;23;20983;-73
2023/10/10 12:28:38;;;;;;;17.48;14.05;;;20.90;99.90;;;;;;6240884;23;20028;-73
2023/10/10 12:31:05;;;;;;;19.67;15.43;;;20.90;99.90;;;;;;6240417;23;20021;-73
2023/10/10 12:33:31;;;;;;;16.10;13.38;;;20.80;99.90;;;;;;6215144;23;20004;-73
2023/10/10 12:35:57;;;;;;;16.33;14.10;;;20.80;99.90;;;;;;6241482;23;20004;-74
2023/10/10 12:38:23;;;;;;;16.67;13.88;;;20.80;99.90;;;;;;6241894;23;20123;-74
2023/10/10 12:40:53;;;;;;;18.83;13.88;;;20.80;99.90;;;;;;6240286;23;20247;-74
2023/10/10 12:43:20;;;;;;;16.38;12.50;;;20.80;99.90;;;;;;6240909;23;20023;-74
2023/10/10 12:45:46;;;;;;;16.60;13.27;;;20.90;99.90;;;;;;6240975;23;20108;-74
2023/10/10 12:48:14;;;;;;;17.58;12.68;;;20.90;99.90;;;;;;6240772;23;20010;-74
2023/10/10 12:50:46;;;;;;;18.35;12.48;;;21.00;99.90;;;;;;6214335;23;20474;-74
2023/10/10 12:53:15;;;;;;;17.38;12.80;;;21.00;99.90;;;;;;6239609;23;19996;-74
2023/10/10 12:58:27;;;;;;;18.90;12.30;;;21.00;99.90;;;;;;6240694;23;20066;-74
2023/10/10 13:00:53;;;;;;;22.27;13.05;;;21.00;99.90;;;;;;6240919;23;20427;-75
2023/10/10 13:03:23;;;;;;;18.88;12.63;;;21.10;99.90;;;;;;6239751;23;20454;-75
2023/10/10 13:05:53;;;;;;;14.57;12.38;;;21.10;99.90;;;;;;6241061;23;20000;-74
2023/10/10 13:08:22;;;;;;;17.00;11.93;;;21.10;99.90;;;;;;6214109;23;20056;-74
2023/10/10 13:11:01;;;;;;;14.73;11.52;;;21.10;99.90;;;;;;6240214;23;20000;-74
2023/10/10 13:13:27;;;;;;;15.15;12.23;;;21.20;99.90;;;;;;6239154;23;20001;-74
2023/10/10 13:16:22;;;;;;;14.00;11.65;;;21.30;99.80;;;;;;6213075;23;20039;-73
2023/10/10 13:18:48;;;;;;;12.35;10.57;;;21.30;99.60;;;;;;6241273;23;20020;-73
2023/10/10 13:21:14;;;;;;;15.27;10.60;;;21.30;99.50;;;;;;6240629;23;20303;-74
2023/10/10 13:23:43;;;;;;;14.15;10.63;;;21.40;99.40;;;;;;6239545;23;20007;-74
2023/10/10 13:26:10;;;;;;;17.27;11.70;;;21.50;99.30;;;;;;6213098;23;20418;-73
2023/10/10 13:28:36;;;;;;;13.57;11.07;;;21.60;99.20;;;;;;6241026;23;20000;-74
2023/10/10 13:31:02;;;;;;;12.60;9.80;;;21.70;99.00;;;;;;6239787;23;19996;-74
2023/10/10 13:33:28;;;;;;;11.25;9.57;;;21.90;98.80;;;;;;6243865;23;19996;-74
2023/10/10 13:35:53;;;;;;;13.48;10.15;;;22.00;98.50;;;;;;6212509;23;20012;-75
2023/10/10 13:38:19;;;;;;;13.73;10.60;;;22.10;98.20;;;;;;6241112;23;20057;-75
2023/10/10 13:40:46;;;;;;;12.15;10.02;;;22.20;97.80;;;;;;6241198;23;20012;-74
2023/10/10 13:43:16;;;;;;;13.93;9.73;;;22.30;97.80;;;;;;6241071;23;20005;-74
2023/10/10 13:45:48;;;;;;;13.10;9.27;;;22.40;97.50;;;;;;6239651;23;20034;-74
2023/10/10 13:48:13;;;;;;;11.48;8.35;;;22.50;97.40;;;;;;6237906;23;20112;-74
2023/10/10 13:50:45;;;;;;;15.23;9.52;;;22.50;97.20;;;;;;6240277;23;20388;-74
2023/10/10 13:53:14;;;;;;;14.05;9.57;;;22.60;97.00;;;;;;6212894;23;20460;-74
2023/10/10 13:55:44;;;;;;;14.23;8.80;;;22.60;97.00;;;;;;6239349;23;20004;-74
2023/10/10 13:58:15;;;;;;;11.35;8.70;;;22.70;96.80;;;;;;6240122;23;20079;-74
2023/10/10 14:00:55;;;;;;;11.88;8.23;;;22.80;96.70;;;;;;6214163;23;20386;-74
2023/10/10 14:03:35;;;;;;;10.50;8.00;;;22.80;96.60;;;;;;6240337;23;20035;-74
2023/10/10 14:06:04;;;;;;;11.63;8.40;;;22.90;96.60;;;;;;6240935;23;20329;-74
2023/10/10 14:08:30;;;;;;;12.38;9.18;;;22.90;96.50;;;;;;6238056;23;20004;-75
2023/10/10 14:10:59;;;;;;;10.35;8.57;;;22.90;96.30;;;;;;6241305;23;20339;-74
2023/10/10 14:13:29;;;;;;;12.60;7.95;;;22.80;96.10;;;;;;6240193;23;20272;-74
2023/10/10 14:15:55;;;;;;;15.45;9.25;;;22.70;96.20;;;;;;6240983;23;20005;-74
2023/10/10 14:18:20;;;;;;;10.82;7.40;;;22.60;96.30;;;;;;6212280;23;20038;-74
2023/10/10 14:20:48;;;;;;;12.35;8.30;;;22.50;96.40;;;;;;6240979;23;20355;-74
2023/10/10 14:23:14;;;;;;;10.50;7.18;;;22.40;96.50;;;;;;6239918;23;20373;-75
2023/10/10 14:25:45;;;;;;;9.60;7.03;;;22.30;96.80;;;;;;6240583;23;20069;-74
2023/10/10 14:28:16;;;;;;;13.10;8.02;;;22.20;96.90;;;;;;6240454;23;20060;-74
2023/10/10 14:30:42;;;;;;;11.60;7.82;;;22.20;97.00;;;;;;6239694;23;20004;-75
2023/10/10 14:33:08;;;;;;;11.60;8.30;;;22.10;96.90;;;;;;6240852;23;20075;-75
2023/10/10 14:35:34;;;;;;;13.55;8.05;;;22.20;97.00;;;;;;6240938;23;20043;-74
2023/10/10 14:38:00;;;;;;;14.40;8.13;;;22.10;96.90;;;;;;6239852;23;20452;-75
2023/10/10 14:40:26;;;;;;;13.13;7.68;;;22.20;97.00;;;;;;6240473;23;20027;-74
2023/10/10 14:42:52;;;;;;;10.98;7.97;;;22.20;97.10;;;;;;6214082;23;20007;-75
2023/10/10 14:45:19;;;;;;;9.85;6.75;;;22.30;97.40;;;;;;6213040;23;20095;-74
2023/10/10 14:47:45;;;;;;;9.75;7.13;;;22.40;97.20;;;;;;6240488;23;20422;-75
2023/10/10 14:50:12;;;;;;;10.20;7.50;;;22.40;97.10;;;;;;6240617;23;19996;-74
2023/10/10 14:52:47;;;;;;;9.68;7.22;;;22.50;97.30;;;;;;6239686;23;20006;-74
2023/10/10 14:55:23;;;;;;;10.52;7.72;;;22.60;96.90;;;;;;6239007;23;20004;-74
2023/10/10 14:57:55;;;;;;;8.52;7.07;;;22.60;96.80;;;;;;6238843;23;20028;-75
2023/10/10 15:00:25;;;;;;;10.70;7.03;;;22.70;96.70;;;;;;6240606;23;20000;-74
2023/10/10 15:02:53;;;;;;;11.15;7.55;;;22.80;96.50;;;;;;6240283;23;19996;-74
2023/10/10 15:05:20;;;;;;;10.32;5.82;;;22.80;96.10;;;;;;6240607;23;20326;-74
2023/10/10 15:07:46;;;;;;;12.13;7.78;;;22.90;96.20;;;;;;6239778;23;20000;-74
2023/10/10 15:10:12;;;;;;;12.05;7.38;;;22.90;95.90;;;;;;6240264;23;20027;-74
2023/10/10 15:12:37;;;;;;;13.30;6.75;;;22.80;95.20;;;;;;6240257;23;20162;-74
2023/10/10 15:15:04;;;;;;;9.18;5.50;;;22.80;95.00;;;;;;6239894;23;20058;-74
2023/10/10 15:17:30;;;;;;;9.98;6.05;;;22.80;94.90;;;;;;6240560;23;20000;-74
2023/10/10 15:19:56;;;;;;;8.38;6.30;;;22.70;94.90;;;;;;6240646;23;20321;-74
2023/10/10 15:22:21;;;;;;;9.50;5.53;;;22.60;95.00;;;;;;6239501;23;20004;-75
2023/10/10 15:24:49;;;;;;;8.63;5.65;;;22.50;95.00;;;;;;6240320;23;20007;-75
2023/10/10 15:27:16;;;;;;;10.18;5.70;;;22.50;95.10;;;;;;6240593;23;20124;-75